createdAt,value
2022-11-01T00:00:46.292Z,99.99
2022-11-01T00:01:46.383Z,99.99
2022-11-01T00:02:46.257Z,99.99
2022-11-01T00:03:46.247Z,99.99
2022-11-01T00:04:46.250Z,99.99
2022-11-01T00:05:46.210Z,99.99
2022-11-01T00:06:46.223Z,99.99
2022-11-01T00:07:46.229Z,99.99
2022-11-01T00:08:46.169Z,99.99
2022-11-01T00:09:46.207Z,99.99
2022-11-01T00:10:46.149Z,99.99
2022-11-01T00:11:46.141Z,99.99
2022-11-01T00:12:46.138Z,99.99
2022-11-01T00:13:46.157Z,99.99
2022-11-01T00:14:46.116Z,99.99
2022-11-01T00:15:46.139Z,99.99
2022-11-01T00:16:46.096Z,99.99
2022-11-01T00:17:46.079Z,99.99
2022-11-01T00:18:46.058Z,99.99
2022-11-01T00:19:46.066Z,99.99
2022-11-01T00:20:46.075Z,99.99
2022-11-01T00:21:46.027Z,99.99
2022-11-01T00:22:46.029Z,99.99
2022-11-01T00:23:46.012Z,99.99
2022-11-01T00:24:45.999Z,99.99
2022-11-01T00:25:46.040Z,99.99
2022-11-01T00:26:46.040Z,99.99
2022-11-01T00:27:46.985Z,99.99
2022-11-01T00:28:45.971Z,99.99
2022-11-01T00:29:45.949Z,99.99
2022-11-01T00:30:46.018Z,99.99
2022-11-01T00:31:45.922Z,99.99
2022-11-01T00:32:45.940Z,99.99
2022-11-01T00:33:45.903Z,99.99
2022-11-01T00:34:45.883Z,99.99
2022-11-01T00:35:45.907Z,99.99
2022-11-01T00:36:45.859Z,99.99
2022-11-01T00:37:45.852Z,99.99
2022-11-01T00:38:45.846Z,99.99
2022-11-01T00:39:45.829Z,99.99
2022-11-01T00:40:45.856Z,99.99
2022-11-01T00:41:45.821Z,99.99
2022-11-01T00:42:45.799Z,99.99
2022-11-01T00:43:45.788Z,99.99
2022-11-01T00:44:45.789Z,99.99
2022-11-01T00:45:45.810Z,99.99
2022-11-01T00:46:45.753Z,99.99
2022-11-01T00:47:45.756Z,99.99
2022-11-01T00:48:45.732Z,99.99
2022-11-01T00:49:45.723Z,99.99
2022-11-01T00:50:45.752Z,99.99
2022-11-01T00:51:45.733Z,99.99
2022-11-01T00:52:45.683Z,99.99
2022-11-01T00:53:45.679Z,99.99
2022-11-01T00:54:45.667Z,99.99
2022-11-01T00:55:45.698Z,99.99
2022-11-01T00:56:45.672Z,99.99
2022-11-01T00:57:45.632Z,99.99
2022-11-01T00:58:45.613Z,99.99
2022-11-01T00:59:45.658Z,99.99
2022-11-01T01:00:45.639Z,99.99
2022-11-01T01:01:45.782Z,99.99
2022-11-01T01:02:45.587Z,99.99
2022-11-01T01:03:45.561Z,99.99
2022-11-01T01:04:45.557Z,99.99
2022-11-01T01:05:45.534Z,99.99
2022-11-01T01:06:45.563Z,99.99
2022-11-01T01:07:45.514Z,99.99
2022-11-01T01:08:45.559Z,99.99
2022-11-01T01:09:45.509Z,99.99
2022-11-01T01:10:45.487Z,99.99
2022-11-01T01:11:45.508Z,99.99
2022-11-01T01:12:45.453Z,99.99
2022-11-01T01:13:45.464Z,99.99
2022-11-01T01:14:45.437Z,99.99
2022-11-01T01:15:45.431Z,99.99
2022-11-01T01:16:45.448Z,99.99
2022-11-01T01:17:45.415Z,99.99
2022-11-01T01:18:45.388Z,99.99
2022-11-01T01:19:45.437Z,99.99
2022-11-01T01:20:45.387Z,99.99
2022-11-01T01:21:45.392Z,99.99
2022-11-01T01:22:45.342Z,99.99
2022-11-01T01:23:45.341Z,99.99
2022-11-01T01:24:45.339Z,99.99
2022-11-01T01:25:45.318Z,99.99
2022-11-01T01:26:45.299Z,99.99
2022-11-01T01:27:45.340Z,99.99
2022-11-01T01:28:45.281Z,99.99
2022-11-01T01:29:45.276Z,99.99
2022-11-01T01:30:45.259Z,99.99
2022-11-01T01:31:45.250Z,99.99
2022-11-01T01:32:45.270Z,99.99
2022-11-01T01:33:45.223Z,99.99
2022-11-01T01:34:45.229Z,99.99
2022-11-01T01:35:45.208Z,99.99
2022-11-01T01:36:45.192Z,99.99
2022-11-01T01:37:45.279Z,99.99
2022-11-01T01:38:45.200Z,99.99
2022-11-01T01:39:45.183Z,99.99
2022-11-01T01:40:45.144Z,99.99
2022-11-01T01:41:45.174Z,99.99
2022-11-01T01:42:45.173Z,99.99
2022-11-01T01:43:45.116Z,99.99
2022-11-01T01:44:45.102Z,99.99
2022-11-01T01:45:45.099Z,99.99
2022-11-01T01:46:45.113Z,99.99
2022-11-01T01:47:45.108Z,99.99
2022-11-01T01:48:45.102Z,99.99
2022-11-01T01:49:45.073Z,99.99
2022-11-01T01:50:45.037Z,99.99
2022-11-01T01:51:45.031Z,99.99
2022-11-01T01:52:45.060Z,99.99
2022-11-01T01:53:45.873Z,99.99
2022-11-01T01:54:44.999Z,99.99
2022-11-01T01:55:45.234Z,99.99
2022-11-01T01:56:44.964Z,99.99
2022-11-01T01:57:44.958Z,99.99
2022-11-01T01:58:44.976Z,99.99
2022-11-01T01:59:44.934Z,99.99
2022-11-01T02:00:45.050Z,99.99
2022-11-01T02:01:45.030Z,99.99
2022-11-01T02:02:44.899Z,99.99
2022-11-01T02:03:44.924Z,99.99
2022-11-01T02:04:44.927Z,99.99
2022-11-01T02:05:44.869Z,99.99
2022-11-01T02:06:44.862Z,99.99
2022-11-01T02:07:44.871Z,99.99
2022-11-01T02:08:44.874Z,99.99
2022-11-01T02:09:44.829Z,99.99
2022-11-01T02:10:44.849Z,99.99
2022-11-01T02:11:44.793Z,99.99
2022-11-01T02:12:44.796Z,99.99
2022-11-01T02:13:44.783Z,99.99
2022-11-01T02:14:44.768Z,99.99
2022-11-01T02:15:44.796Z,99.99
2022-11-01T02:16:44.753Z,99.99
2022-11-01T02:17:44.794Z,99.99
2022-11-01T02:18:44.726Z,99.99
2022-11-01T02:19:44.719Z,99.99
2022-11-01T02:20:44.725Z,99.99
2022-11-01T02:21:44.688Z,99.99
2022-11-01T02:23:44.722Z,99.99
2022-11-01T02:24:44.698Z,99.99
2022-11-01T02:25:44.702Z,99.99
2022-11-01T02:26:44.645Z,99.99
2022-11-01T02:27:44.669Z,99.99
2022-11-01T02:28:44.632Z,99.99
2022-11-01T02:29:44.614Z,99.99
2022-11-01T02:30:44.593Z,99.99
2022-11-01T02:31:45.374Z,99.99
2022-11-01T02:32:44.606Z,99.99
2022-11-01T02:33:44.571Z,99.99
2022-11-01T02:34:44.540Z,99.99
2022-11-01T02:35:44.526Z,99.99
2022-11-01T02:36:44.605Z,99.99
2022-11-01T02:37:44.560Z,99.99
2022-11-01T02:38:44.502Z,99.99
2022-11-01T02:39:44.490Z,99.99
2022-11-01T02:40:44.524Z,99.99
2022-11-01T02:41:44.463Z,99.99
2022-11-01T02:42:44.458Z,99.99
2022-11-01T02:43:44.506Z,99.99
2022-11-01T02:44:44.439Z,99.99
2022-11-01T02:45:45.432Z,99.99
2022-11-01T02:46:44.419Z,99.99
2022-11-01T02:47:44.398Z,99.99
2022-11-01T02:48:44.422Z,99.99
2022-11-01T02:49:44.418Z,99.99
2022-11-01T02:50:44.407Z,99.99
2022-11-01T02:51:44.351Z,99.99
2022-11-01T02:52:44.350Z,99.99
2022-11-01T02:53:44.337Z,99.99
2022-11-01T02:54:44.318Z,99.99
2022-11-01T02:56:44.318Z,99.99
2022-11-01T02:57:44.281Z,99.99
2022-11-01T02:58:44.327Z,99.99
2022-11-01T02:59:44.262Z,99.99
2022-11-01T03:00:44.355Z,99.99
2022-11-01T03:01:45.008Z,99.99
2022-11-01T03:02:44.229Z,99.99
2022-11-01T03:03:44.250Z,99.99
2022-11-01T03:04:44.485Z,99.99
2022-11-01T03:05:44.200Z,99.99
2022-11-01T03:06:44.189Z,99.99
2022-11-01T03:07:44.186Z,99.99
2022-11-01T03:08:44.189Z,99.99
2022-11-01T03:09:44.206Z,99.99
2022-11-01T03:10:44.150Z,99.99
2022-11-01T03:11:44.222Z,99.99
2022-11-01T03:12:44.123Z,99.99
2022-11-01T03:13:44.151Z,99.99
2022-11-01T03:14:44.100Z,99.99
2022-11-01T03:15:44.096Z,99.99
2022-11-01T03:16:44.084Z,99.99
2022-11-01T03:17:44.062Z,99.99
2022-11-01T03:18:44.100Z,99.99
2022-11-01T03:19:44.052Z,99.99
2022-11-01T03:20:44.031Z,99.99
2022-11-01T03:21:44.029Z,99.99
2022-11-01T03:22:44.038Z,99.99
2022-11-01T03:23:44.031Z,99.99
2022-11-01T03:24:43.987Z,99.99
2022-11-01T03:25:43.982Z,99.99
2022-11-01T03:26:43.966Z,99.99
2022-11-01T03:27:43.958Z,99.99
2022-11-01T03:28:43.975Z,99.99
2022-11-01T03:29:43.960Z,99.99
2022-11-01T03:30:43.919Z,99.99
2022-11-01T03:31:43.961Z,99.99
2022-11-01T03:32:43.902Z,99.99
2022-11-01T03:33:43.931Z,99.99
2022-11-01T03:34:43.873Z,99.99
2022-11-01T03:35:43.875Z,99.99
2022-11-01T03:36:43.860Z,99.99
2022-11-01T03:37:43.837Z,99.99
2022-11-01T03:38:43.845Z,99.99
2022-11-01T03:39:43.918Z,99.99
2022-11-01T03:40:43.805Z,99.99
2022-11-01T03:41:43.793Z,99.99
2022-11-01T03:42:43.801Z,99.99
2022-11-01T03:43:43.799Z,99.99
2022-11-01T03:44:43.775Z,99.99
2022-11-01T03:45:43.751Z,99.99
2022-11-01T03:46:43.740Z,99.99
2022-11-01T03:47:43.763Z,99.99
2022-11-01T03:48:43.716Z,99.99
2022-11-01T03:49:43.734Z,99.99
2022-11-01T03:50:43.701Z,99.99
2022-11-01T03:51:43.691Z,99.99
2022-11-01T03:52:43.679Z,99.99
2022-11-01T03:53:43.671Z,99.99
2022-11-01T03:54:43.700Z,99.99
2022-11-01T03:55:43.633Z,99.99
2022-11-01T03:56:43.629Z,99.99
2022-11-01T03:57:43.619Z,99.99
2022-11-01T03:58:44.929Z,99.99
2022-11-01T03:59:43.602Z,99.99
2022-11-01T04:00:43.658Z,99.99
2022-11-01T04:01:43.701Z,99.99
2022-11-01T04:02:43.555Z,99.99
2022-11-01T04:03:43.544Z,99.99
2022-11-01T04:04:43.540Z,99.99
2022-11-01T04:05:43.560Z,99.99
2022-11-01T04:06:43.519Z,99.99
2022-11-01T04:07:43.505Z,99.99
2022-11-01T04:08:43.496Z,99.99
2022-11-01T04:09:43.730Z,99.99
2022-11-01T04:10:43.509Z,99.99
2022-11-01T04:11:50.228Z,99.99
2022-11-01T04:12:50.214Z,99.99
2022-11-01T04:13:49.397Z,99.99
2022-11-01T04:14:43.433Z,99.99
2022-11-01T04:15:43.447Z,99.99
2022-11-01T04:16:43.400Z,99.99
2022-11-01T04:17:43.401Z,99.99
2022-11-01T04:18:43.444Z,99.99
2022-11-01T04:19:43.398Z,99.99
2022-11-01T04:20:43.560Z,99.99
2022-11-01T04:21:43.360Z,99.99
2022-11-01T04:22:43.334Z,99.99
2022-11-01T04:23:43.896Z,99.99
2022-11-01T04:24:43.314Z,99.99
2022-11-01T04:25:43.301Z,99.99
2022-11-01T04:26:43.321Z,99.99
2022-11-01T04:27:43.300Z,99.99
2022-11-01T04:28:43.270Z,99.99
2022-11-01T04:29:43.287Z,99.99
2022-11-01T04:30:43.254Z,99.99
2022-11-01T04:31:43.268Z,99.99
2022-11-01T04:32:43.232Z,99.99
2022-11-01T04:33:43.211Z,99.99
2022-11-01T04:34:43.235Z,99.99
2022-11-01T04:35:43.223Z,99.99
2022-11-01T04:36:43.182Z,99.99
2022-11-01T04:37:43.219Z,99.99
2022-11-01T04:38:43.195Z,99.99
2022-11-01T04:39:43.143Z,99.99
2022-11-01T04:40:43.141Z,99.99
2022-11-01T04:41:43.115Z,99.99
2022-11-01T04:42:43.123Z,99.99
2022-11-01T04:43:43.140Z,99.99
2022-11-01T04:44:43.090Z,99.99
2022-11-01T04:45:43.071Z,99.99
2022-11-01T04:46:43.064Z,99.99
2022-11-01T04:47:43.049Z,99.99
2022-11-01T04:48:43.084Z,99.99
2022-11-01T04:49:43.034Z,99.99
2022-11-01T04:50:43.079Z,99.99
2022-11-01T04:51:43.050Z,99.99
2022-11-01T04:52:42.999Z,99.99
2022-11-01T04:53:42.989Z,99.99
2022-11-01T04:54:42.984Z,99.99
2022-11-01T04:55:42.962Z,99.99
2022-11-01T04:56:42.986Z,99.99
2022-11-01T04:57:42.957Z,99.99
2022-11-01T04:58:46.056Z,99.99
2022-11-01T04:59:42.949Z,99.99
2022-11-01T05:00:42.955Z,99.99
2022-11-01T05:01:43.978Z,99.99
2022-11-01T05:02:42.889Z,99.99
2022-11-01T05:03:42.889Z,99.99
2022-11-01T05:04:42.870Z,99.99
2022-11-01T05:05:42.890Z,99.99
2022-11-01T05:06:42.835Z,99.99
2022-11-01T05:07:42.888Z,99.99
2022-11-01T05:08:42.845Z,99.99
2022-11-01T05:09:44.916Z,99.99
2022-11-01T05:10:42.831Z,99.99
2022-11-01T05:11:42.788Z,99.99
2022-11-01T05:12:42.776Z,99.99
2022-11-01T05:13:42.771Z,99.99
2022-11-01T05:14:42.770Z,99.99
2022-11-01T05:15:59.272Z,99.99
2022-11-01T05:16:42.782Z,99.99
2022-11-01T05:17:43.001Z,99.99
2022-11-01T05:18:42.715Z,99.99
2022-11-01T05:19:42.695Z,99.99
2022-11-01T05:20:42.732Z,99.99
2022-11-01T05:21:42.682Z,99.99
2022-11-01T05:22:42.663Z,99.99
2022-11-01T05:23:42.655Z,99.99
2022-11-01T05:24:43.669Z,99.99
2022-11-01T05:25:42.662Z,99.99
2022-11-01T05:26:42.621Z,99.99
2022-11-01T05:27:42.612Z,99.99
2022-11-01T05:28:42.603Z,99.99
2022-11-01T05:29:42.584Z,99.99
2022-11-01T05:30:42.590Z,99.99
2022-11-01T05:31:42.599Z,99.99
2022-11-01T05:32:42.549Z,99.99
2022-11-01T05:33:42.545Z,99.99
2022-11-01T05:34:42.523Z,99.99
2022-11-01T05:35:42.541Z,99.99
2022-11-01T05:36:42.509Z,99.99
2022-11-01T05:37:42.493Z,99.99
2022-11-01T05:38:42.483Z,99.99
2022-11-01T05:39:42.528Z,99.99
2022-11-01T05:40:42.451Z,99.99
2022-11-01T05:41:42.483Z,99.99
2022-11-01T05:42:42.435Z,99.99
2022-11-01T05:43:42.479Z,99.99
2022-11-01T05:44:42.417Z,99.99
2022-11-01T05:45:42.398Z,99.99
2022-11-01T05:46:42.427Z,99.99
2022-11-01T05:47:42.375Z,99.99
2022-11-01T05:48:42.369Z,99.99
2022-11-01T05:49:42.363Z,99.99
2022-11-01T05:50:42.349Z,99.99
2022-11-01T05:51:42.365Z,99.99
2022-11-01T05:52:42.324Z,99.99
2022-11-01T05:53:42.325Z,99.99
2022-11-01T05:54:42.302Z,99.99
2022-11-01T05:55:42.294Z,99.99
2022-11-01T05:56:42.310Z,99.99
2022-11-01T05:57:42.962Z,99.99
2022-11-01T05:58:42.253Z,99.99
2022-11-01T05:59:42.250Z,99.99
2022-11-01T06:00:42.265Z,99.99
2022-11-01T06:01:42.488Z,99.99
2022-11-01T06:02:42.301Z,99.99
2022-11-01T06:03:42.203Z,99.99
2022-11-01T06:04:43.054Z,99.99
2022-11-01T06:05:42.182Z,99.99
2022-11-01T06:06:42.161Z,99.99
2022-11-01T06:07:42.153Z,99.99
2022-11-01T06:08:42.153Z,99.99
2022-11-01T06:09:42.135Z,99.99
2022-11-01T06:10:42.161Z,99.99
2022-11-01T06:11:42.140Z,99.99
2022-11-01T06:12:42.151Z,99.99
2022-11-01T06:13:42.092Z,99.99
2022-11-01T06:14:42.107Z,99.99
2022-11-01T06:15:42.067Z,99.99
2022-11-01T06:16:42.063Z,99.99
2022-11-01T06:17:42.050Z,99.93
2022-11-01T06:18:42.038Z,99.93
2022-11-01T06:19:42.115Z,99.93
2022-11-01T06:20:42.002Z,99.93
2022-11-01T06:21:41.997Z,99.83
2022-11-01T06:22:42.016Z,99.73
2022-11-01T06:23:41.984Z,99.63
2022-11-01T06:24:41.965Z,99.63
2022-11-01T06:25:42.040Z,99.42
2022-11-01T06:26:41.943Z,99.42
2022-11-01T06:27:41.934Z,99.32
2022-11-01T06:28:41.929Z,99.22
2022-11-01T06:29:47.888Z,99.11
2022-11-01T06:30:48.408Z,99.02
2022-11-01T06:31:48.412Z,99.02
2022-11-01T06:32:41.874Z,99.02
2022-11-01T06:33:41.878Z,99.02
2022-11-01T06:34:44.849Z,98.77
2022-11-01T06:35:41.854Z,98.77
2022-11-01T06:36:41.867Z,98.66
2022-11-01T06:37:41.856Z,98.66
2022-11-01T06:38:41.806Z,98.66
2022-11-01T06:39:41.800Z,98.66
2022-11-01T06:40:41.789Z,98.66
2022-11-01T06:41:41.790Z,98.66
2022-11-01T06:42:46.353Z,98.77
2022-11-01T06:43:41.766Z,98.77
2022-11-01T06:44:42.324Z,98.77
2022-11-01T06:45:41.739Z,98.77
2022-11-01T06:46:41.755Z,98.77
2022-11-01T06:47:41.745Z,98.66
2022-11-01T06:48:41.695Z,98.66
2022-11-01T06:49:41.698Z,98.56
2022-11-01T06:50:41.676Z,98.56
2022-11-01T06:51:41.663Z,98.56
2022-11-01T06:52:41.657Z,98.56
2022-11-01T06:53:41.691Z,98.56
2022-11-01T06:54:41.668Z,98.56
2022-11-01T06:55:41.637Z,98.66
2022-11-01T06:56:41.667Z,98.56
2022-11-01T06:57:41.637Z,98.56
2022-11-01T06:58:41.639Z,98.46
2022-11-01T06:59:41.571Z,98.46
2022-11-01T07:00:42.579Z,98.36
2022-11-01T07:01:41.667Z,98.36
2022-11-01T07:02:41.659Z,98.36
2022-11-01T07:03:41.542Z,98.36
2022-11-01T07:04:41.601Z,98.32
2022-11-01T07:05:41.610Z,98.21
2022-11-01T07:06:41.532Z,98.21
2022-11-01T07:07:41.534Z,98.36
2022-11-01T07:08:41.509Z,98.36
2022-11-01T07:09:41.690Z,98.46
2022-11-01T07:10:41.450Z,98.46
2022-11-01T07:11:41.500Z,98.46
2022-11-01T07:12:41.436Z,98.41
2022-11-01T07:13:41.457Z,98.32
2022-11-01T07:14:41.452Z,98.32
2022-11-01T07:15:41.462Z,98.11
2022-11-01T07:16:41.424Z,98.11
2022-11-01T07:17:41.387Z,98.01
2022-11-01T07:18:41.392Z,98.01
2022-11-01T07:19:41.895Z,98.01
2022-11-01T07:20:41.575Z,98.01
2022-11-01T07:21:41.325Z,98.01
2022-11-01T07:22:41.592Z,98.01
2022-11-01T07:23:41.354Z,98.01
2022-11-01T07:24:41.304Z,97.96
2022-11-01T07:25:41.284Z,97.96
2022-11-01T07:26:42.572Z,97.96
2022-11-01T07:27:41.266Z,97.86
2022-11-01T07:28:41.307Z,97.76
2022-11-01T07:29:41.434Z,97.66
2022-11-01T07:30:41.253Z,97.56
2022-11-01T07:31:41.386Z,97.45
2022-11-01T07:32:41.289Z,97.56
2022-11-01T07:33:41.236Z,97.25
2022-11-01T07:34:41.237Z,97.00
2022-11-01T07:35:42.184Z,96.80
2022-11-01T07:36:41.163Z,96.90
2022-11-01T07:37:41.187Z,97.00
2022-11-01T07:38:41.126Z,97.15
2022-11-01T07:39:41.127Z,97.35
2022-11-01T07:40:41.605Z,97.45
2022-11-01T07:41:41.102Z,97.66
2022-11-01T07:42:41.192Z,97.86
2022-11-01T07:43:41.146Z,98.07
2022-11-01T07:44:41.096Z,98.27
2022-11-01T07:45:41.058Z,98.37
2022-11-01T07:46:41.058Z,98.37
2022-11-01T07:47:41.083Z,98.37
2022-11-01T07:48:41.026Z,98.37
2022-11-01T07:49:41.010Z,98.41
2022-11-01T07:50:41.009Z,98.21
2022-11-01T07:51:41.045Z,97.71
2022-11-01T07:52:41.056Z,97.50
2022-11-01T07:53:41.003Z,97.60
2022-11-01T07:54:41.059Z,97.71
2022-11-01T07:55:42.989Z,97.80
2022-11-01T07:56:40.929Z,97.91
2022-11-01T07:57:40.970Z,98.01
2022-11-01T07:58:40.954Z,98.11
2022-11-01T07:59:40.906Z,98.21
2022-11-01T08:00:40.946Z,98.41
2022-11-01T08:01:41.018Z,98.52
2022-11-01T08:02:40.890Z,97.75
2022-11-01T08:03:40.903Z,96.99
2022-11-01T08:04:40.850Z,96.69
2022-11-01T08:05:40.871Z,96.28
2022-11-01T08:06:40.838Z,94.76
2022-11-01T08:07:40.820Z,93.33
2022-11-01T08:08:40.820Z,92.63
2022-11-01T08:09:40.831Z,90.39
2022-11-01T08:10:40.836Z,89.78
2022-11-01T08:11:41.077Z,87.75
2022-11-01T08:12:40.767Z,86.22
2022-11-01T08:13:41.078Z,85.62
2022-11-01T08:14:40.759Z,83.45
2022-11-01T08:15:40.718Z,83.95
2022-11-01T08:16:40.731Z,83.34
2022-11-01T08:17:40.745Z,81.31
2022-11-01T08:18:40.681Z,82.53
2022-11-01T08:19:40.721Z,81.72
2022-11-01T08:20:40.677Z,81.82
2022-11-01T08:21:40.664Z,82.03
2022-11-01T08:22:41.048Z,82.73
2022-11-01T08:23:40.684Z,82.23
2022-11-01T08:24:40.650Z,82.64
2022-11-01T08:25:41.538Z,82.73
2022-11-01T08:26:40.758Z,81.92
2022-11-01T08:27:40.584Z,81.72
2022-11-01T08:28:40.579Z,82.12
2022-11-01T08:29:40.632Z,82.64
2022-11-01T08:30:40.562Z,82.12
2022-11-01T08:31:40.563Z,82.43
2022-11-01T08:32:40.589Z,82.53
2022-11-01T08:33:40.820Z,81.31
2022-11-01T08:34:40.519Z,82.64
2022-11-01T08:35:42.623Z,81.31
2022-11-01T08:36:40.506Z,81.72
2022-11-01T08:37:40.547Z,83.14
2022-11-01T08:38:40.458Z,82.84
2022-11-01T08:39:40.569Z,82.53
2022-11-01T08:40:40.500Z,82.64
2022-11-01T08:41:40.481Z,83.34
2022-11-01T08:42:40.726Z,83.14
2022-11-01T08:43:40.895Z,84.22
2022-11-01T08:44:40.406Z,85.03
2022-11-01T08:45:40.453Z,84.97
2022-11-01T08:46:40.414Z,85.33
2022-11-01T08:47:40.364Z,85.94
2022-11-01T08:48:40.412Z,85.84
2022-11-01T08:49:40.354Z,86.19
2022-11-01T08:50:40.408Z,86.59
2022-11-01T08:51:40.351Z,86.19
2022-11-01T08:52:40.305Z,85.84
2022-11-01T08:53:40.324Z,84.12
2022-11-01T08:54:40.345Z,84.63
2022-11-01T08:55:40.397Z,84.72
2022-11-01T08:56:40.414Z,84.32
2022-11-01T08:57:40.262Z,84.12
2022-11-01T08:58:40.256Z,84.22
2022-11-01T08:59:41.098Z,81.99
2022-11-01T09:00:40.220Z,82.96
2022-11-01T09:01:40.436Z,83.26
2022-11-01T09:02:40.230Z,82.96
2022-11-01T09:03:40.216Z,81.40
2022-11-01T09:04:40.182Z,81.91
2022-11-01T09:05:40.991Z,82.07
2022-11-01T09:06:40.148Z,81.87
2022-11-01T09:07:40.135Z,81.46
2022-11-01T09:08:40.427Z,80.49
2022-11-01T09:09:40.112Z,80.90
2022-11-01T09:10:40.150Z,80.49
2022-11-01T09:11:41.178Z,80.69
2022-11-01T09:13:40.141Z,80.96
2022-11-01T09:14:40.080Z,80.76
2022-11-01T09:15:40.058Z,80.76
2022-11-01T09:16:40.044Z,79.13
2022-11-01T09:17:40.028Z,80.15
2022-11-01T09:18:40.013Z,80.15
2022-11-01T09:19:40.057Z,79.34
2022-11-01T09:20:40.105Z,81.77
2022-11-01T09:21:39.994Z,80.19
2022-11-01T09:22:40.007Z,81.10
2022-11-01T09:23:39.960Z,80.59
2022-11-01T09:24:39.960Z,79.68
2022-11-01T09:25:39.948Z,80.69
2022-11-01T09:26:39.928Z,81.30
2022-11-01T09:27:39.982Z,80.39
2022-11-01T09:28:39.994Z,80.08
2022-11-01T09:29:39.955Z,80.55
2022-11-01T09:30:49.524Z,79.94
2022-11-01T09:31:39.908Z,80.05
2022-11-01T09:32:39.870Z,80.55
2022-11-01T09:33:40.530Z,80.55
2022-11-01T09:34:39.834Z,80.45
2022-11-01T09:35:39.935Z,81.26
2022-11-01T09:36:40.081Z,81.26
2022-11-01T09:37:39.812Z,81.60
2022-11-01T09:38:39.844Z,80.99
2022-11-01T09:39:39.803Z,80.69
2022-11-01T09:40:39.813Z,80.29
2022-11-01T09:41:40.517Z,80.59
2022-11-01T09:42:39.850Z,81.13
2022-11-01T09:43:39.822Z,80.73
2022-11-01T09:44:39.996Z,81.64
2022-11-01T09:45:40.772Z,81.85
2022-11-01T09:46:40.510Z,81.54
2022-11-01T09:47:40.499Z,81.04
2022-11-01T09:48:39.743Z,81.64
2022-11-01T09:49:54.503Z,80.57
2022-11-01T09:50:39.695Z,79.96
2022-11-01T09:51:41.479Z,81.58
2022-11-01T09:52:39.641Z,80.97
2022-11-01T09:53:39.646Z,79.75
2022-11-01T09:54:45.936Z,80.57
2022-11-01T09:55:39.598Z,81.99
2022-11-01T09:56:39.643Z,81.58
2022-11-01T09:57:39.597Z,80.87
2022-11-01T09:58:39.624Z,80.16
2022-11-01T09:59:39.590Z,80.36
2022-11-01T10:00:39.615Z,79.96
2022-11-01T10:01:39.716Z,79.96
2022-11-01T10:02:39.593Z,79.96
2022-11-01T10:03:39.519Z,79.85
2022-11-01T10:04:39.495Z,79.92
2022-11-01T10:05:39.532Z,80.12
2022-11-01T10:06:39.502Z,79.51
2022-11-01T10:07:39.528Z,79.00
2022-11-01T10:08:39.558Z,78.19
2022-11-01T10:09:39.461Z,77.69
2022-11-01T10:10:39.442Z,79.21
2022-11-01T10:11:39.428Z,79.11
2022-11-01T10:12:39.445Z,79.61
2022-11-01T10:13:39.401Z,78.09
2022-11-01T10:14:39.440Z,76.94
2022-11-01T10:15:39.387Z,78.06
2022-11-01T10:16:39.380Z,79.78
2022-11-01T10:17:39.518Z,78.97
2022-11-01T10:18:39.367Z,79.34
2022-11-01T10:19:39.380Z,78.83
2022-11-01T10:20:39.327Z,78.33
2022-11-01T10:21:39.332Z,77.04
2022-11-01T10:22:39.418Z,77.92
2022-11-01T10:23:39.288Z,78.42
2022-11-01T10:24:39.312Z,78.02
2022-11-01T10:25:39.356Z,78.93
2022-11-01T10:26:39.291Z,78.42
2022-11-01T10:27:39.271Z,77.01
2022-11-01T10:28:39.289Z,76.20
2022-11-01T10:29:39.260Z,77.01
2022-11-01T10:30:39.243Z,77.31
2022-11-01T10:31:39.230Z,77.17
2022-11-01T10:32:39.233Z,75.76
2022-11-01T10:33:39.422Z,75.35
2022-11-01T10:34:39.224Z,74.95
2022-11-01T10:35:39.394Z,76.53
2022-11-01T10:36:39.262Z,76.43
2022-11-01T10:37:43.813Z,76.43
2022-11-01T10:39:16.645Z,77.14
2022-11-01T10:39:55.828Z,77.17
2022-11-01T10:40:39.134Z,76.97
2022-11-01T10:41:39.123Z,75.35
2022-11-01T10:42:39.116Z,74.95
2022-11-01T10:43:39.149Z,74.54
2022-11-01T10:44:39.075Z,75.42
2022-11-01T10:45:42.352Z,74.71
2022-11-01T10:46:39.072Z,74.10
2022-11-01T10:47:39.096Z,74.00
2022-11-01T10:48:39.056Z,74.27
2022-11-01T10:50:39.023Z,73.56
2022-11-01T10:51:39.984Z,73.29
2022-11-01T10:52:38.988Z,74.51
2022-11-01T10:53:38.974Z,74.98
2022-11-01T10:54:39.995Z,75.28
2022-11-01T10:55:39.023Z,73.05
2022-11-01T10:56:39.033Z,74.67
2022-11-01T10:57:38.921Z,74.57
2022-11-01T10:58:38.901Z,74.63
2022-11-01T10:59:38.911Z,73.96
2022-11-01T11:00:39.964Z,75.18
2022-11-01T11:01:39.283Z,74.37
2022-11-01T11:02:39.341Z,74.47
2022-11-01T11:03:38.944Z,73.69
2022-11-01T11:04:38.849Z,74.60
2022-11-01T11:05:38.821Z,75.52
2022-11-01T11:06:38.835Z,75.62
2022-11-01T11:07:38.959Z,74.20
2022-11-01T11:08:38.804Z,75.21
2022-11-01T11:09:38.785Z,74.20
2022-11-01T11:10:38.783Z,75.11
2022-11-01T11:11:39.794Z,75.42
2022-11-01T11:12:38.861Z,76.63
2022-11-01T11:13:38.746Z,76.53
2022-11-01T11:14:38.743Z,76.23
2022-11-01T11:15:38.740Z,75.72
2022-11-01T11:16:38.706Z,75.72
2022-11-01T11:17:38.727Z,77.54
2022-11-01T11:18:38.791Z,77.34
2022-11-01T11:19:38.729Z,77.03
2022-11-01T11:20:38.858Z,75.11
2022-11-01T11:21:38.671Z,76.12
2022-11-01T11:22:38.647Z,76.32
2022-11-01T11:23:38.778Z,77.24
2022-11-01T11:24:38.690Z,76.90
2022-11-01T11:25:39.552Z,76.12
2022-11-01T11:26:39.067Z,76.32
2022-11-01T11:27:38.765Z,76.93
2022-11-01T11:28:38.731Z,76.32
2022-11-01T11:29:38.591Z,75.82
2022-11-01T11:30:38.625Z,76.93
2022-11-01T11:31:38.604Z,77.14
2022-11-01T11:32:38.609Z,77.03
2022-11-01T11:33:38.520Z,77.81
2022-11-01T11:34:38.505Z,77.44
2022-11-01T11:35:38.571Z,77.64
2022-11-01T11:36:38.495Z,77.61
2022-11-01T11:37:38.539Z,78.92
2022-11-01T11:38:38.545Z,77.91
2022-11-01T11:39:38.460Z,77.61
2022-11-01T11:40:38.450Z,77.40
2022-11-01T11:41:38.774Z,78.11
2022-11-01T11:42:38.409Z,77.24
2022-11-01T11:43:38.393Z,78.15
2022-11-01T11:44:38.413Z,78.35
2022-11-01T11:45:38.370Z,78.05
2022-11-01T11:46:38.691Z,78.21
2022-11-01T11:47:38.406Z,79.02
2022-11-01T11:48:38.373Z,78.82
2022-11-01T11:49:38.332Z,78.38
2022-11-01T11:50:38.359Z,77.37
2022-11-01T11:51:38.322Z,76.76
2022-11-01T11:52:38.947Z,77.30
2022-11-01T11:53:38.312Z,78.82
2022-11-01T11:54:38.312Z,78.82
2022-11-01T11:55:38.424Z,78.72
2022-11-01T11:56:38.313Z,77.30
2022-11-01T11:57:39.061Z,77.30
2022-11-01T11:58:38.230Z,77.26
2022-11-01T11:59:38.336Z,78.08
2022-11-01T12:00:38.282Z,77.87
2022-11-01T12:01:39.286Z,78.17
2022-11-01T12:02:38.472Z,78.17
2022-11-01T12:03:38.186Z,78.68
2022-11-01T12:04:38.247Z,77.40
2022-11-01T12:05:38.141Z,77.91
2022-11-01T12:06:38.154Z,77.40
2022-11-01T12:07:38.154Z,77.30
2022-11-01T12:08:38.143Z,77.77
2022-11-01T12:09:38.108Z,78.88
2022-11-01T12:10:38.136Z,77.97
2022-11-01T12:11:39.134Z,79.08
2022-11-01T12:12:38.087Z,78.48
2022-11-01T12:13:38.073Z,76.76
2022-11-01T12:14:38.053Z,77.33
2022-11-01T12:15:41.104Z,76.62
2022-11-01T12:16:38.021Z,77.47
2022-11-01T12:17:38.023Z,77.84
2022-11-01T12:18:37.987Z,77.64
2022-11-01T12:19:39.016Z,76.28
2022-11-01T12:20:38.016Z,77.09
2022-11-01T12:21:38.013Z,77.09
2022-11-01T12:22:37.994Z,75.98
2022-11-01T12:23:37.938Z,75.61
2022-11-01T12:24:37.932Z,76.72
2022-11-01T12:25:38.505Z,77.43
2022-11-01T12:26:37.942Z,77.03
2022-11-01T12:27:37.911Z,77.84
2022-11-01T12:28:37.902Z,77.67
2022-11-01T12:29:38.004Z,78.34
2022-11-01T12:30:37.897Z,78.08
2022-11-01T12:31:37.842Z,77.47
2022-11-01T12:32:37.867Z,77.64
2022-11-01T12:33:37.818Z,76.99
2022-11-01T12:34:39.856Z,77.29
2022-11-01T12:35:37.844Z,77.60
2022-11-01T12:36:37.806Z,77.19
2022-11-01T12:37:37.774Z,77.90
2022-11-01T12:38:37.823Z,75.47
2022-11-01T12:39:37.776Z,74.60
2022-11-01T12:40:37.812Z,74.80
2022-11-01T12:41:37.897Z,72.17
2022-11-01T12:42:37.871Z,71.84
2022-11-01T12:43:37.750Z,70.56
2022-11-01T12:44:37.729Z,69.18
2022-11-01T12:45:37.709Z,68.32
2022-11-01T12:46:37.704Z,67.18
2022-11-01T12:47:38.713Z,66.41
2022-11-01T12:48:37.703Z,65.88
2022-11-01T12:49:37.673Z,64.77
2022-11-01T12:50:37.678Z,65.81
2022-11-01T12:51:37.695Z,65.31
2022-11-01T12:52:37.678Z,65.31
2022-11-01T12:53:37.660Z,65.24
2022-11-01T12:54:37.645Z,65.07
2022-11-01T12:55:37.612Z,67.24
2022-11-01T12:56:37.598Z,66.34